createdAt,value
2022-08-17T00:06:36.705Z,22.2
2022-08-17T00:16:50.296Z,21.8
2022-08-17T00:26:43.767Z,21.7
2022-08-17T00:36:38.707Z,21.7
2022-08-17T00:46:39.446Z,21.4
2022-08-17T00:56:40.194Z,21.1
2022-08-17T01:06:41.103Z,20.9
2022-08-17T01:26:42.694Z,20.7
2022-08-17T01:36:42.812Z,20.7
2022-08-17T01:56:44.517Z,20.6
2022-08-17T02:06:45.442Z,20.6
2022-08-17T02:16:45.137Z,20.5
2022-08-17T02:26:45.934Z,20.8
2022-08-17T02:36:46.733Z,21
2022-08-17T02:46:46.829Z,21
2022-08-17T03:06:48.398Z,21.2
2022-08-17T03:16:49.078Z,21.2
2022-08-17T03:26:50.006Z,21.5
2022-08-17T03:56:51.906Z,21.7
2022-08-17T04:16:53.295Z,22
2022-08-17T04:26:54.633Z,21.9
2022-08-17T04:36:53.965Z,21.8
2022-08-17T04:46:54.544Z,21.6
2022-08-17T04:56:54.989Z,21.5
2022-08-17T05:06:55.137Z,21.5
2022-08-17T05:16:55.523Z,21.5
2022-08-17T05:26:56.171Z,21.6
2022-08-17T05:36:57.327Z,21.7
2022-08-17T05:46:57.258Z,21.6
2022-08-17T05:56:57.773Z,21.7
2022-08-17T06:06:58.164Z,21.9
2022-08-17T06:16:59.059Z,22.2
2022-08-17T06:27:00.095Z,22.3
2022-08-17T06:37:00.935Z,22.6
2022-08-17T06:47:01.394Z,22.8
2022-08-17T06:57:01.680Z,22.8
2022-08-17T07:07:02.638Z,22.8
2022-08-17T07:17:03.289Z,23.1
2022-08-17T07:27:03.516Z,23.1
2022-08-17T07:37:03.933Z,23.1
2022-08-17T07:47:04.339Z,23.3
2022-08-17T07:57:05.180Z,23.6
2022-08-17T08:07:05.406Z,24
2022-08-17T08:17:06.370Z,24.4
2022-08-17T08:27:06.818Z,24.5
2022-08-17T08:37:16.129Z,24.9
2022-08-17T08:47:08.073Z,26.4
2022-08-17T08:57:24.108Z,26.2
2022-08-17T09:07:09.850Z,26.6
2022-08-17T09:17:10.537Z,26.5
2022-08-17T09:27:11.118Z,26.3
2022-08-17T09:47:12.236Z,25.5
2022-08-17T09:57:28.923Z,25.5
2022-08-17T10:07:12.524Z,25.5
2022-08-17T10:17:12.683Z,25.4
2022-08-17T10:37:13.588Z,25.2
2022-08-17T11:07:15.112Z,24.4
2022-08-17T11:17:15.495Z,24
2022-08-17T11:37:15.992Z,23.5
2022-08-17T11:47:16.678Z,23.3
2022-08-17T11:57:17.075Z,23.3
2022-08-17T12:17:18.882Z,23.3
2022-08-17T12:37:19.701Z,23.5
2022-08-17T12:57:20.658Z,24.3
2022-08-17T13:07:21.073Z,24.5
2022-08-17T13:17:21.174Z,24.7
2022-08-17T13:27:21.430Z,25.7
2022-08-17T13:37:21.620Z,25.9
2022-08-17T13:47:22.238Z,26.8
2022-08-17T13:57:23.270Z,26.9
2022-08-17T14:07:24.118Z,26.7
2022-08-17T14:17:24.898Z,25.9
2022-08-17T14:27:25.217Z,26.4
2022-08-17T14:37:25.720Z,26.7
2022-08-17T14:47:25.793Z,27.4
2022-08-17T14:57:33.925Z,25.8
2022-08-17T15:07:32.923Z,25.2
2022-08-17T15:17:44.162Z,25.1
2022-08-17T15:27:34.545Z,25.2
2022-08-17T15:37:34.889Z,25.6
2022-08-17T15:47:35.891Z,25.5
2022-08-17T15:57:36.584Z,25.6
2022-08-17T16:07:36.781Z,25.4
2022-08-17T16:17:40.403Z,25.2
2022-08-17T16:27:37.478Z,25.1
2022-08-17T17:07:40.084Z,24.3
2022-08-17T17:17:40.818Z,24.3
2022-08-17T17:27:41.807Z,24
2022-08-17T17:37:41.971Z,23.8
2022-08-17T17:47:42.498Z,23.6
2022-08-17T17:57:42.699Z,23.6
2022-08-17T18:07:42.998Z,23.1
2022-08-17T18:17:43.873Z,23.1
2022-08-17T18:27:44.226Z,22.9
2022-08-17T18:37:44.831Z,22.6
2022-08-17T18:47:44.985Z,22.4
2022-08-17T18:57:45.242Z,22.2
2022-08-17T19:07:46.117Z,21.9
2022-08-17T19:17:46.871Z,21.7
2022-08-17T19:27:57.610Z,21.6
2022-08-17T19:37:47.644Z,21.6
2022-08-17T19:48:04.607Z,21.4
2022-08-17T19:57:49.220Z,21.2
2022-08-17T20:07:49.963Z,21.1
2022-08-17T20:17:50.748Z,21
2022-08-17T21:07:54.280Z,20.3
2022-08-17T21:17:54.314Z,20.5
2022-08-17T21:37:55.846Z,20.2
2022-08-17T21:58:13.572Z,20
2022-08-17T22:07:57.175Z,19.9
2022-08-17T22:17:58.105Z,19.7
2022-08-17T22:27:58.313Z,19.6
2022-08-17T22:37:59.173Z,19.5
2022-08-17T22:47:59.318Z,19.4
2022-08-17T22:57:59.636Z,19.3
2022-08-17T23:08:00.287Z,19.1
2022-08-17T23:18:00.426Z,18.9
2022-08-17T23:28:00.914Z,18.8
2022-08-17T23:38:01.342Z,18.8
2022-08-17T23:48:01.645Z,18.7
2022-08-17T23:58:01.951Z,18.7
